createdAt,value
2022-07-25T00:00:35.421Z,4.90
2022-07-25T00:01:35.400Z,5.10
2022-07-25T00:02:35.354Z,5.00
2022-07-25T00:03:35.318Z,5.00
2022-07-25T00:04:35.340Z,5.10
2022-07-25T00:05:37.991Z,5.20
2022-07-25T00:06:35.210Z,4.90
2022-07-25T00:07:35.175Z,4.90
2022-07-25T00:08:35.145Z,4.90
2022-07-25T00:09:35.106Z,4.80
2022-07-25T00:10:35.070Z,4.90
2022-07-25T00:11:35.049Z,4.80
2022-07-25T00:12:35.000Z,5.10
2022-07-25T00:13:34.967Z,5.20
2022-07-25T00:14:34.928Z,4.90
2022-07-25T00:15:34.962Z,5.10
2022-07-25T00:16:34.942Z,4.80
2022-07-25T00:17:34.835Z,5.00
2022-07-25T00:18:34.788Z,5.00
2022-07-25T00:19:34.755Z,5.50
2022-07-25T00:20:34.717Z,5.10
2022-07-25T00:21:34.689Z,5.10
2022-07-25T00:22:34.664Z,5.30
2022-07-25T00:23:34.614Z,4.70
2022-07-25T00:24:34.577Z,5.10
2022-07-25T00:25:34.542Z,5.00
2022-07-25T00:26:39.770Z,5.10
2022-07-25T00:27:34.475Z,4.80
2022-07-25T00:28:34.453Z,5.10
2022-07-25T00:29:34.430Z,4.80
2022-07-25T00:30:34.368Z,5.00
2022-07-25T00:31:34.461Z,5.00
2022-07-25T00:32:34.298Z,5.10
2022-07-25T00:33:34.257Z,4.90
2022-07-25T00:34:34.225Z,5.30
2022-07-25T00:35:34.205Z,5.20
2022-07-25T00:36:34.155Z,4.80
2022-07-25T00:37:34.120Z,4.90
2022-07-25T00:38:34.084Z,5.00
2022-07-25T00:39:35.756Z,5.10
2022-07-25T00:40:34.014Z,4.90
2022-07-25T00:41:33.991Z,4.90
2022-07-25T00:42:33.943Z,5.00
2022-07-25T00:43:33.908Z,4.80
2022-07-25T00:44:33.873Z,5.20
2022-07-25T00:45:33.836Z,5.30
2022-07-25T00:46:33.870Z,5.00
2022-07-25T00:47:33.771Z,5.00
2022-07-25T00:48:33.808Z,5.00
2022-07-25T00:49:33.702Z,4.90
2022-07-25T00:50:33.660Z,4.90
2022-07-25T00:51:33.625Z,5.10
2022-07-25T00:52:33.605Z,5.20
2022-07-25T00:53:33.556Z,5.10
2022-07-25T00:54:33.520Z,5.00
2022-07-25T00:55:33.488Z,5.00
2022-07-25T00:56:33.453Z,4.90
2022-07-25T00:57:33.413Z,4.90
2022-07-25T00:58:33.396Z,5.00
2022-07-25T00:59:33.342Z,5.10
2022-07-25T01:00:33.306Z,4.80
2022-07-25T01:01:33.306Z,5.00
2022-07-25T01:02:33.266Z,5.10
2022-07-25T01:03:33.209Z,5.20
2022-07-25T01:04:33.181Z,4.80
2022-07-25T01:05:33.130Z,5.30
2022-07-25T01:06:33.094Z,5.30
2022-07-25T01:07:33.065Z,5.20
2022-07-25T01:08:33.025Z,5.30
2022-07-25T01:09:33.006Z,5.10
2022-07-25T01:10:32.954Z,5.40
2022-07-25T01:11:32.919Z,5.10
2022-07-25T01:12:32.887Z,5.10
2022-07-25T01:13:32.849Z,4.90
2022-07-25T01:14:32.810Z,5.20
2022-07-25T01:15:32.854Z,5.30
2022-07-25T01:16:32.739Z,5.20
2022-07-25T01:17:32.723Z,4.90
2022-07-25T01:18:32.671Z,4.80
2022-07-25T01:19:32.635Z,4.80
2022-07-25T01:20:32.614Z,5.20
2022-07-25T01:21:32.567Z,5.00
2022-07-25T01:22:32.529Z,5.20
2022-07-25T01:23:32.497Z,5.40
2022-07-25T01:24:32.457Z,5.00
2022-07-25T01:25:32.435Z,5.30
2022-07-25T01:26:32.399Z,5.50
2022-07-25T01:27:32.355Z,5.20
2022-07-25T01:28:32.317Z,5.20
2022-07-25T01:29:32.286Z,5.30
2022-07-25T01:30:32.245Z,5.60
2022-07-25T01:31:32.246Z,5.30
2022-07-25T01:32:32.187Z,5.30
2022-07-25T01:33:32.140Z,5.30
2022-07-25T01:34:32.105Z,5.30
2022-07-25T01:35:32.070Z,5.40
2022-07-25T01:36:32.032Z,5.40
2022-07-25T01:37:32.001Z,5.70
2022-07-25T01:38:31.971Z,5.50
2022-07-25T01:39:31.937Z,5.80
2022-07-25T01:40:31.891Z,6.10
2022-07-25T01:41:31.860Z,5.80
2022-07-25T01:42:31.818Z,6.00
2022-07-25T01:43:31.790Z,6.00
2022-07-25T01:44:31.763Z,5.40
2022-07-25T01:45:31.719Z,5.30
2022-07-25T01:46:31.745Z,5.50
2022-07-25T01:47:31.654Z,5.80
2022-07-25T01:48:31.673Z,6.00
2022-07-25T01:49:31.568Z,5.60
2022-07-25T01:50:31.544Z,5.70
2022-07-25T01:51:31.519Z,5.90
2022-07-25T01:52:31.467Z,5.90
2022-07-25T01:53:31.425Z,6.00
2022-07-25T01:54:31.404Z,6.10
2022-07-25T01:55:31.358Z,6.10
2022-07-25T01:56:31.784Z,6.20
2022-07-25T01:57:31.379Z,6.00
2022-07-25T01:58:31.259Z,6.20
2022-07-25T01:59:31.212Z,6.50
2022-07-25T02:00:31.180Z,6.00
2022-07-25T02:01:31.239Z,6.30
2022-07-25T02:02:31.101Z,6.40
2022-07-25T02:03:31.074Z,6.50
2022-07-25T02:04:31.102Z,6.50
2022-07-25T02:05:30.996Z,6.10
2022-07-25T02:06:30.958Z,6.00
2022-07-25T02:07:30.923Z,6.30
2022-07-25T02:08:30.888Z,6.60
2022-07-25T02:09:30.891Z,6.40
2022-07-25T02:10:30.835Z,6.30
2022-07-25T02:11:30.900Z,6.50
2022-07-25T02:12:30.748Z,6.70
2022-07-25T02:13:30.730Z,6.80
2022-07-25T02:14:30.667Z,6.70
2022-07-25T02:15:30.644Z,6.10
2022-07-25T02:16:30.672Z,6.50
2022-07-25T02:17:30.651Z,6.60
2022-07-25T02:18:30.533Z,6.50
2022-07-25T02:19:30.493Z,6.40
2022-07-25T02:20:30.461Z,6.40
2022-07-25T02:21:30.412Z,6.60
2022-07-25T02:22:30.389Z,6.00
2022-07-25T02:23:30.356Z,6.30
2022-07-25T02:24:30.321Z,6.50
2022-07-25T02:25:30.273Z,6.60
2022-07-25T02:26:30.236Z,6.80
2022-07-25T02:27:30.207Z,6.30
2022-07-25T02:28:30.161Z,6.40
2022-07-25T02:29:30.141Z,6.80
2022-07-25T02:30:30.138Z,6.30
2022-07-25T02:31:30.056Z,6.70
2022-07-25T02:32:30.015Z,6.90
2022-07-25T02:33:29.979Z,6.80
2022-07-25T02:34:29.944Z,6.60
2022-07-25T02:35:29.949Z,6.60
2022-07-25T02:36:29.868Z,6.80
2022-07-25T02:37:29.832Z,6.80
2022-07-25T02:38:29.796Z,6.70
2022-07-25T02:39:29.764Z,7.00
2022-07-25T02:40:29.722Z,6.50
2022-07-25T02:41:29.701Z,6.60
2022-07-25T02:42:29.650Z,6.60
2022-07-25T02:43:29.619Z,7.00
2022-07-25T02:44:29.577Z,7.40
2022-07-25T02:45:29.544Z,7.20
2022-07-25T02:46:29.604Z,7.10
2022-07-25T02:47:29.484Z,6.60
2022-07-25T02:48:29.483Z,6.70
2022-07-25T02:49:29.397Z,6.80
2022-07-25T02:50:29.360Z,7.10
2022-07-25T02:51:29.325Z,7.20
2022-07-25T02:52:29.291Z,7.00
2022-07-25T02:53:55.569Z,6.70
2022-07-25T02:54:29.214Z,6.60
2022-07-25T02:55:29.193Z,6.90
2022-07-25T02:56:30.101Z,6.80
2022-07-25T02:57:29.106Z,6.60
2022-07-25T02:58:29.069Z,7.20
2022-07-25T02:59:32.206Z,6.80
2022-07-25T03:00:28.991Z,6.90
2022-07-25T03:01:29.027Z,6.80
2022-07-25T03:02:28.926Z,7.00
2022-07-25T03:03:28.881Z,7.00
2022-07-25T03:04:28.902Z,7.10
2022-07-25T03:05:28.811Z,6.90
2022-07-25T03:06:28.775Z,7.20
2022-07-25T03:07:28.757Z,7.00
2022-07-25T03:08:28.721Z,7.20
2022-07-25T03:09:28.668Z,7.00
2022-07-25T03:10:28.635Z,6.70
2022-07-25T03:11:28.592Z,6.60
2022-07-25T03:12:28.567Z,6.90
2022-07-25T03:13:28.549Z,7.30
2022-07-25T03:14:28.481Z,7.20
2022-07-25T03:15:28.457Z,7.30
2022-07-25T03:16:28.457Z,7.10
2022-07-25T03:17:28.370Z,6.80
2022-07-25T03:18:28.332Z,7.30
2022-07-25T03:19:28.308Z,7.10
2022-07-25T03:20:28.266Z,7.20
2022-07-25T03:21:28.239Z,7.40
2022-07-25T03:22:28.189Z,7.10
2022-07-25T03:23:28.170Z,7.40
2022-07-25T03:24:28.111Z,7.10
2022-07-25T03:25:28.080Z,7.20
2022-07-25T03:26:28.041Z,7.10
2022-07-25T03:27:28.015Z,7.40
2022-07-25T03:28:27.965Z,7.60
2022-07-25T03:29:27.931Z,7.60
2022-07-25T03:30:27.896Z,7.20
2022-07-25T03:31:27.929Z,7.40
2022-07-25T03:32:27.838Z,7.30
2022-07-25T03:33:27.785Z,7.20
2022-07-25T03:34:27.748Z,6.90
2022-07-25T03:35:27.709Z,7.30
2022-07-25T03:36:27.671Z,7.30
2022-07-25T03:37:27.639Z,7.60
2022-07-25T03:38:27.610Z,7.50
2022-07-25T03:39:27.566Z,7.50
2022-07-25T03:40:27.525Z,7.40
2022-07-25T03:41:27.985Z,7.60
2022-07-25T03:42:30.053Z,7.50
2022-07-25T03:43:27.414Z,7.40
2022-07-25T03:44:27.390Z,7.40
2022-07-25T03:45:27.379Z,7.50
2022-07-25T03:46:27.371Z,7.00
2022-07-25T03:47:27.268Z,7.40
2022-07-25T03:48:27.245Z,7.30
2022-07-25T03:49:27.205Z,7.30
2022-07-25T03:50:27.172Z,7.80
2022-07-25T03:51:27.122Z,7.20
2022-07-25T03:52:27.082Z,7.20
2022-07-25T03:53:27.047Z,7.50
2022-07-25T03:54:27.026Z,7.40
2022-07-25T03:55:26.970Z,7.10
2022-07-25T03:56:26.949Z,7.40
2022-07-25T03:57:26.900Z,7.10
2022-07-25T03:58:26.863Z,7.50
2022-07-25T03:59:26.829Z,7.20
2022-07-25T04:00:26.788Z,7.30
2022-07-25T04:01:26.922Z,7.80
2022-07-25T04:02:26.792Z,7.20
2022-07-25T04:03:26.680Z,7.20
2022-07-25T04:04:26.648Z,7.50
2022-07-25T04:05:26.602Z,7.00
2022-07-25T04:06:26.566Z,7.60
2022-07-25T04:07:26.544Z,7.40
2022-07-25T04:08:26.497Z,7.20
2022-07-25T04:09:26.455Z,7.50
2022-07-25T04:10:26.441Z,7.30
2022-07-25T04:11:26.383Z,7.30
2022-07-25T04:12:26.346Z,7.10
2022-07-25T04:13:26.327Z,7.10
2022-07-25T04:14:26.273Z,7.30
2022-07-25T04:15:26.237Z,6.90
2022-07-25T04:16:27.779Z,7.30
2022-07-25T04:17:26.165Z,7.30
2022-07-25T04:18:28.628Z,7.40
2022-07-25T04:19:26.254Z,7.30
2022-07-25T04:20:26.053Z,7.20
2022-07-25T04:21:26.018Z,7.60
2022-07-25T04:22:25.985Z,7.60
2022-07-25T04:23:25.947Z,7.90
2022-07-25T04:24:25.907Z,7.50
2022-07-25T04:25:25.885Z,7.10
2022-07-25T04:26:25.840Z,7.00
2022-07-25T04:27:25.796Z,6.90
2022-07-25T04:28:25.764Z,7.00
2022-07-25T04:29:25.723Z,7.40
2022-07-25T04:30:25.700Z,7.10
2022-07-25T04:31:25.715Z,6.90
2022-07-25T04:32:25.672Z,7.20
2022-07-25T04:33:25.577Z,6.70
2022-07-25T04:34:25.542Z,7.10
2022-07-25T04:35:25.510Z,6.90
2022-07-25T04:36:25.481Z,7.00
2022-07-25T04:37:25.433Z,6.60
2022-07-25T04:38:25.397Z,6.30
2022-07-25T04:39:25.361Z,7.00
2022-07-25T04:40:25.328Z,7.00
2022-07-25T04:41:25.288Z,6.90
2022-07-25T04:42:25.279Z,6.70
2022-07-25T04:43:25.223Z,6.70
2022-07-25T04:44:25.180Z,7.10
2022-07-25T04:45:25.184Z,6.60
2022-07-25T04:46:25.107Z,6.80
2022-07-25T04:47:25.071Z,6.80
2022-07-25T04:48:25.105Z,6.90
2022-07-25T04:49:24.997Z,6.40
2022-07-25T04:50:25.225Z,6.80
2022-07-25T04:51:24.942Z,6.80
2022-07-25T04:52:24.890Z,7.10
2022-07-25T04:53:24.852Z,6.60
2022-07-25T04:54:24.828Z,6.80
2022-07-25T04:55:24.784Z,7.10
2022-07-25T04:56:24.750Z,7.00
2022-07-25T04:57:24.713Z,7.00
2022-07-25T04:58:24.685Z,6.70
2022-07-25T04:59:24.638Z,6.80
2022-07-25T05:00:24.606Z,6.60
2022-07-25T05:01:24.647Z,6.90
2022-07-25T05:02:24.650Z,6.30
2022-07-25T05:03:24.497Z,6.50
2022-07-25T05:04:24.482Z,6.10
2022-07-25T05:05:24.432Z,6.30
2022-07-25T05:06:24.395Z,6.70
2022-07-25T05:07:24.356Z,6.80
2022-07-25T05:08:24.322Z,6.70
2022-07-25T05:09:24.285Z,6.40
2022-07-25T05:10:24.264Z,6.70
2022-07-25T05:11:24.217Z,6.60
2022-07-25T05:12:24.181Z,6.70
2022-07-25T05:13:24.144Z,6.90
2022-07-25T05:14:24.114Z,6.10
2022-07-25T05:15:24.073Z,6.30
2022-07-25T05:16:24.139Z,6.20
2022-07-25T05:17:24.005Z,6.20
2022-07-25T05:18:23.986Z,6.50
2022-07-25T05:19:23.940Z,6.00
2022-07-25T05:20:23.898Z,6.60
2022-07-25T05:21:23.864Z,6.20
2022-07-25T05:22:28.199Z,5.70
2022-07-25T05:23:23.796Z,5.70
2022-07-25T05:24:23.771Z,5.80
2022-07-25T05:25:23.735Z,5.40
2022-07-25T05:26:23.694Z,5.50
2022-07-25T05:27:23.655Z,5.50
2022-07-25T05:28:23.623Z,5.40
2022-07-25T05:29:23.586Z,5.80
2022-07-25T05:30:23.551Z,5.30
2022-07-25T05:31:23.585Z,5.90
2022-07-25T05:32:23.484Z,5.70
2022-07-25T05:33:23.460Z,5.50
2022-07-25T05:34:23.415Z,5.60
2022-07-25T05:35:23.379Z,5.10
2022-07-25T05:36:23.344Z,4.90
2022-07-25T05:37:23.310Z,5.40
2022-07-25T05:38:23.291Z,5.40
2022-07-25T05:39:23.241Z,5.10
2022-07-25T05:40:23.207Z,5.20
2022-07-25T05:41:23.172Z,5.50
2022-07-25T05:42:23.139Z,5.20
2022-07-25T05:43:23.104Z,5.40
2022-07-25T05:44:23.086Z,5.30
2022-07-25T05:45:23.032Z,5.20
2022-07-25T05:46:23.052Z,5.30
2022-07-25T05:47:22.967Z,5.20
2022-07-25T05:48:22.942Z,5.30
2022-07-25T05:49:22.914Z,5.10
2022-07-25T05:50:22.875Z,5.50
2022-07-25T05:51:26.739Z,5.30
2022-07-25T05:52:22.850Z,5.00
2022-07-25T05:53:22.760Z,5.20
2022-07-25T05:54:22.730Z,5.20
2022-07-25T05:55:22.706Z,5.60
2022-07-25T05:56:22.661Z,5.00
2022-07-25T05:57:22.637Z,5.00
2022-07-25T05:58:27.545Z,5.30
2022-07-25T05:59:22.559Z,5.20
2022-07-25T06:00:22.524Z,5.20
2022-07-25T06:01:22.537Z,5.00
2022-07-25T06:02:22.636Z,5.10
2022-07-25T06:03:22.494Z,5.80
2022-07-25T06:04:26.871Z,5.10
2022-07-25T06:05:22.364Z,5.30
2022-07-25T06:06:22.322Z,5.10
2022-07-25T06:07:22.288Z,5.40
2022-07-25T06:08:22.575Z,5.10
2022-07-25T06:09:22.219Z,5.50
2022-07-25T06:10:22.221Z,5.60
2022-07-25T06:11:22.153Z,5.20
2022-07-25T06:12:24.435Z,4.70
2022-07-25T06:13:22.087Z,5.40
2022-07-25T06:14:22.073Z,5.30
2022-07-25T06:15:22.458Z,5.10
2022-07-25T06:16:22.044Z,5.50
2022-07-25T06:17:21.971Z,5.70
2022-07-25T06:18:21.924Z,5.50
2022-07-25T06:19:21.889Z,5.30
2022-07-25T06:20:21.864Z,5.10
2022-07-25T06:21:21.822Z,5.20
2022-07-25T06:22:21.802Z,5.30
2022-07-25T06:23:21.769Z,5.20
2022-07-25T06:24:21.725Z,5.20
2022-07-25T06:25:21.693Z,5.10
2022-07-25T06:26:21.656Z,5.40
2022-07-25T06:27:24.959Z,5.10
2022-07-25T06:28:21.596Z,5.00
2022-07-25T06:29:21.568Z,5.30
2022-07-25T06:30:21.522Z,5.80
2022-07-25T06:31:21.534Z,5.30
2022-07-25T06:32:21.456Z,5.40
2022-07-25T06:33:21.431Z,5.10
2022-07-25T06:34:22.490Z,5.30
2022-07-25T06:35:21.372Z,5.40
2022-07-25T06:36:21.329Z,5.50
2022-07-25T06:37:21.301Z,5.40
2022-07-25T06:38:21.274Z,5.20
2022-07-25T06:39:21.222Z,5.30
2022-07-25T06:40:21.189Z,5.50
2022-07-25T06:41:21.157Z,5.10
2022-07-25T06:42:21.137Z,5.10
2022-07-25T06:43:21.103Z,5.40
2022-07-25T06:44:21.064Z,5.00
2022-07-25T06:45:21.031Z,5.10
2022-07-25T06:46:21.087Z,5.10
2022-07-25T06:47:20.963Z,5.30
2022-07-25T06:48:20.938Z,5.30
2022-07-25T06:49:20.910Z,5.40
2022-07-25T06:50:21.277Z,5.20
2022-07-25T06:51:20.840Z,5.40
2022-07-25T06:52:20.806Z,5.20
2022-07-25T06:53:20.775Z,5.60
2022-07-25T06:54:20.744Z,5.40
2022-07-25T06:55:20.727Z,5.20
2022-07-25T06:56:20.674Z,5.40
2022-07-25T06:57:20.643Z,5.10
2022-07-25T06:58:24.046Z,5.50
2022-07-25T06:59:20.578Z,5.50
2022-07-25T07:00:20.549Z,5.10
2022-07-25T07:01:20.626Z,5.20
2022-07-25T07:02:20.488Z,5.40
2022-07-25T07:03:20.531Z,5.30
2022-07-25T07:04:20.451Z,5.50
2022-07-25T07:05:20.399Z,5.20
2022-07-25T07:06:20.386Z,5.10
2022-07-25T07:07:20.330Z,5.40
2022-07-25T07:08:20.295Z,5.50
2022-07-25T07:09:20.267Z,5.30
2022-07-25T07:10:20.230Z,4.70
2022-07-25T07:11:20.211Z,5.20
2022-07-25T07:12:20.210Z,5.10
2022-07-25T07:13:24.073Z,5.40
2022-07-25T07:14:20.106Z,5.10
2022-07-25T07:15:20.082Z,5.20
2022-07-25T07:16:20.156Z,5.00
2022-07-25T07:17:20.013Z,5.30
2022-07-25T07:18:20.007Z,5.10
2022-07-25T07:19:19.960Z,5.00
2022-07-25T07:20:19.921Z,5.10
2022-07-25T07:21:21.550Z,5.30
2022-07-25T07:22:19.863Z,5.10
2022-07-25T07:23:19.827Z,5.00
2022-07-25T07:24:24.279Z,5.40
2022-07-25T07:25:19.797Z,5.40
2022-07-25T07:26:19.736Z,5.40
2022-07-25T07:27:19.728Z,4.80
2022-07-25T07:28:19.669Z,4.90
2022-07-25T07:29:19.640Z,5.40
2022-07-25T07:30:24.053Z,5.50
2022-07-25T07:31:19.791Z,4.80
2022-07-25T07:32:19.606Z,5.40
2022-07-25T07:33:19.508Z,5.00
2022-07-25T07:34:19.473Z,5.10
2022-07-25T07:35:19.468Z,5.30
2022-07-25T07:36:19.430Z,5.40
2022-07-25T07:37:19.389Z,5.50
2022-07-25T07:38:19.353Z,5.50
2022-07-25T07:39:19.321Z,5.30
2022-07-25T07:40:19.288Z,5.40
2022-07-25T07:41:19.255Z,5.20
2022-07-25T07:42:19.241Z,5.40
2022-07-25T07:43:19.195Z,5.30
2022-07-25T07:44:19.157Z,5.50
2022-07-25T07:45:19.131Z,5.20
2022-07-25T07:46:19.141Z,5.20
2022-07-25T07:47:19.088Z,4.80
2022-07-25T07:48:19.050Z,5.10
2022-07-25T07:49:19.092Z,5.20
2022-07-25T07:50:19.010Z,5.10
2022-07-25T07:51:18.952Z,5.00
2022-07-25T07:52:18.918Z,5.10
2022-07-25T07:53:18.918Z,5.30
2022-07-25T07:54:18.859Z,5.70
2022-07-25T07:55:18.824Z,5.40
2022-07-25T07:56:18.797Z,5.60
2022-07-25T07:57:18.788Z,6.00
2022-07-25T07:58:18.741Z,5.00
2022-07-25T07:59:18.733Z,5.20
2022-07-25T08:00:18.687Z,5.60
2022-07-25T08:01:18.741Z,5.40
2022-07-25T08:02:18.685Z,5.80
2022-07-25T08:03:18.698Z,5.10
2022-07-25T08:04:18.549Z,5.40
2022-07-25T08:05:18.538Z,5.40
2022-07-25T08:06:18.529Z,5.80
2022-07-25T08:07:18.466Z,5.40
2022-07-25T08:08:18.426Z,5.70
2022-07-25T08:09:18.407Z,5.70
2022-07-25T08:10:18.367Z,5.60
2022-07-25T08:11:18.341Z,5.60
2022-07-25T08:12:18.323Z,5.80
2022-07-25T08:13:18.278Z,5.30
2022-07-25T08:14:18.267Z,5.30
2022-07-25T08:15:18.221Z,5.20
2022-07-25T08:16:18.229Z,5.20
2022-07-25T08:17:18.159Z,5.50
2022-07-25T08:18:18.437Z,5.40
2022-07-25T08:19:18.113Z,5.40
2022-07-25T08:20:36.962Z,5.30
2022-07-25T08:21:18.043Z,5.10
2022-07-25T08:22:18.021Z,5.40
2022-07-25T08:23:17.974Z,4.90
2022-07-25T08:24:17.960Z,5.10
2022-07-25T08:25:17.914Z,4.80
2022-07-25T08:26:17.884Z,4.90
2022-07-25T08:27:17.855Z,4.90
2022-07-25T08:28:17.831Z,4.70
2022-07-25T08:29:19.587Z,4.90
2022-07-25T08:30:17.780Z,4.80
2022-07-25T08:31:17.794Z,5.10
2022-07-25T08:32:17.697Z,4.90
2022-07-25T08:33:17.667Z,5.00
2022-07-25T08:34:17.647Z,4.90
2022-07-25T08:35:17.609Z,4.90
2022-07-25T08:36:17.587Z,4.90
2022-07-25T08:37:17.554Z,5.10
2022-07-25T08:38:17.512Z,4.50
2022-07-25T08:39:17.482Z,4.70
2022-07-25T08:40:17.448Z,4.80
2022-07-25T08:41:17.467Z,5.00
2022-07-25T08:42:17.385Z,4.60
2022-07-25T08:43:17.351Z,5.10
2022-07-25T08:44:17.318Z,5.20
2022-07-25T08:45:17.297Z,4.80
2022-07-25T08:46:17.331Z,4.80
2022-07-25T08:47:17.239Z,4.90
2022-07-25T08:48:17.198Z,4.80
2022-07-25T08:49:17.237Z,4.60
2022-07-25T08:50:17.210Z,4.80
2022-07-25T08:51:17.099Z,4.50
2022-07-25T08:52:17.063Z,4.70
2022-07-25T08:53:32.833Z,4.90
2022-07-25T08:54:17.004Z,4.90
2022-07-25T08:55:16.976Z,4.70
2022-07-25T08:56:20.979Z,4.40
2022-07-25T08:57:16.919Z,4.50
2022-07-25T08:58:16.878Z,4.50
2022-07-25T08:59:16.875Z,4.70
2022-07-25T09:00:16.874Z,4.60
2022-07-25T09:01:16.890Z,4.80
2022-07-25T09:02:16.811Z,4.40
2022-07-25T09:03:16.799Z,4.30
2022-07-25T09:04:16.688Z,4.50
2022-07-25T09:05:16.672Z,4.40
2022-07-25T09:06:16.632Z,4.60
2022-07-25T09:07:16.604Z,4.50
2022-07-25T09:08:16.565Z,4.50
2022-07-25T09:09:16.539Z,4.60
2022-07-25T09:10:16.563Z,4.20
2022-07-25T09:11:16.489Z,4.20
2022-07-25T09:12:16.443Z,4.60
2022-07-25T09:13:16.409Z,4.60
2022-07-25T09:14:16.380Z,4.50
2022-07-25T09:15:16.347Z,4.50
2022-07-25T09:16:16.371Z,4.40
2022-07-25T09:17:22.527Z,4.20
2022-07-25T09:18:16.943Z,4.10
2022-07-25T09:19:16.226Z,4.40
2022-07-25T09:20:18.495Z,4.30
2022-07-25T09:21:16.165Z,4.60
2022-07-25T09:22:16.137Z,4.40
2022-07-25T09:23:16.121Z,4.20
2022-07-25T09:24:16.239Z,4.50
2022-07-25T09:25:16.056Z,4.30
2022-07-25T09:26:16.020Z,4.20
2022-07-25T09:27:16.008Z,4.60
2022-07-25T09:28:15.981Z,4.30
2022-07-25T09:29:16.377Z,4.60
2022-07-25T09:30:15.914Z,4.40
2022-07-25T09:31:15.973Z,4.60
2022-07-25T09:32:15.850Z,4.70
2022-07-25T09:33:15.824Z,4.30
2022-07-25T09:34:15.795Z,4.20
2022-07-25T09:35:15.781Z,4.60
2022-07-25T09:36:15.741Z,4.50
2022-07-25T09:37:15.723Z,4.40
2022-07-25T09:38:15.680Z,4.60
2022-07-25T09:39:15.654Z,4.50
2022-07-25T09:40:15.620Z,4.50
2022-07-25T09:41:15.595Z,4.50
2022-07-25T09:42:15.580Z,4.40
2022-07-25T09:43:15.561Z,4.70
2022-07-25T09:44:15.514Z,4.30
2022-07-25T09:45:15.492Z,4.20
2022-07-25T09:46:15.501Z,4.40
2022-07-25T09:47:15.420Z,4.40
2022-07-25T09:48:15.398Z,4.40
2022-07-25T09:49:15.445Z,4.30
2022-07-25T09:50:15.355Z,4.90
2022-07-25T09:51:15.304Z,4.60
2022-07-25T09:52:15.272Z,4.60
2022-07-25T09:53:15.246Z,4.50
2022-07-25T09:54:15.230Z,4.80
2022-07-25T09:55:15.190Z,4.90
2022-07-25T09:56:15.173Z,4.80
2022-07-25T09:57:15.130Z,5.00
2022-07-25T09:58:15.108Z,4.90
2022-07-25T09:59:15.125Z,4.70
2022-07-25T10:00:19.249Z,4.70
2022-07-25T10:01:15.060Z,4.70
2022-07-25T10:02:15.003Z,5.00
2022-07-25T10:03:14.963Z,4.90
2022-07-25T10:04:14.912Z,4.60
2022-07-25T10:05:14.886Z,4.70
2022-07-25T10:06:14.869Z,5.10
2022-07-25T10:07:14.824Z,4.70
2022-07-25T10:08:14.788Z,5.00
2022-07-25T10:09:14.758Z,4.80
2022-07-25T10:10:14.728Z,5.40
2022-07-25T10:11:14.705Z,5.10
2022-07-25T10:12:14.663Z,5.10
2022-07-25T10:13:14.630Z,5.20
2022-07-25T10:14:14.597Z,5.00
2022-07-25T10:15:14.599Z,5.20
2022-07-25T10:16:14.538Z,5.30
2022-07-25T10:17:14.614Z,5.30
2022-07-25T10:18:14.515Z,5.10
2022-07-25T10:19:14.473Z,5.10
2022-07-25T10:20:14.461Z,5.20
2022-07-25T10:21:25.422Z,5.00
2022-07-25T10:22:14.361Z,4.90
2022-07-25T10:23:14.344Z,5.20
2022-07-25T10:24:14.304Z,5.30
2022-07-25T10:25:14.250Z,5.00
2022-07-25T10:26:14.223Z,5.20
2022-07-25T10:27:14.192Z,5.10
2022-07-25T10:28:14.143Z,5.60
2022-07-25T10:29:14.131Z,4.90
2022-07-25T10:30:14.101Z,5.40
2022-07-25T10:31:14.133Z,5.10
2022-07-25T10:32:14.041Z,5.20
2022-07-25T10:33:14.001Z,5.50
2022-07-25T10:34:13.963Z,5.20
2022-07-25T10:35:13.946Z,5.10
2022-07-25T10:36:13.892Z,5.00
2022-07-25T10:37:13.859Z,5.30
2022-07-25T10:38:13.837Z,5.40
2022-07-25T10:39:13.806Z,5.40
2022-07-25T10:40:13.757Z,4.80
2022-07-25T10:41:13.737Z,5.00
2022-07-25T10:42:13.691Z,4.90
2022-07-25T10:43:13.667Z,4.70
2022-07-25T10:44:13.644Z,4.70
2022-07-25T10:45:13.632Z,4.40
2022-07-25T10:46:13.598Z,4.50
2022-07-25T10:47:13.543Z,4.30
2022-07-25T10:48:13.574Z,4.00
2022-07-25T10:49:13.635Z,4.30
2022-07-25T10:50:25.587Z,4.60
2022-07-25T10:51:13.407Z,4.30
2022-07-25T10:52:13.370Z,4.50
2022-07-25T10:53:13.352Z,4.40
2022-07-25T10:54:13.307Z,4.30
2022-07-25T10:55:13.290Z,4.10
2022-07-25T10:56:13.250Z,4.10
2022-07-25T10:57:13.219Z,4.10
2022-07-25T10:58:18.000Z,4.10
2022-07-25T10:59:13.174Z,4.20
2022-07-25T11:00:13.139Z,4.00
2022-07-25T11:01:13.289Z,3.70
2022-07-25T11:02:13.123Z,4.10
2022-07-25T11:03:17.852Z,3.70
2022-07-25T11:04:13.058Z,3.60
2022-07-25T11:05:13.051Z,3.80
2022-07-25T11:06:13.006Z,3.50
2022-07-25T11:07:12.949Z,3.70
2022-07-25T11:08:21.569Z,3.70
2022-07-25T11:09:17.527Z,3.50
2022-07-25T11:10:12.858Z,3.30
2022-07-25T11:11:12.839Z,4.00
2022-07-25T11:12:12.821Z,3.60
2022-07-25T11:13:12.779Z,3.40
2022-07-25T11:14:12.798Z,3.50
2022-07-25T11:15:17.100Z,3.60
2022-07-25T11:16:12.783Z,3.30
2022-07-25T11:17:12.802Z,3.50
2022-07-25T11:18:12.670Z,3.40
2022-07-25T11:19:12.614Z,3.50
2022-07-25T11:20:12.591Z,3.20
2022-07-25T11:21:12.558Z,3.20
2022-07-25T11:22:12.565Z,3.10
2022-07-25T11:23:12.522Z,3.20
2022-07-25T11:24:12.484Z,3.20
2022-07-25T11:25:12.457Z,3.30
2022-07-25T11:26:12.461Z,3.20
2022-07-25T11:27:12.978Z,3.40
2022-07-25T11:28:12.489Z,3.50
2022-07-25T11:32:02.616Z,3.20
2022-07-25T11:33:02.527Z,3.20
2022-07-25T11:34:02.508Z,3.00
2022-07-25T11:35:02.465Z,3.10
2022-07-25T11:36:02.434Z,2.90
2022-07-25T11:37:02.417Z,2.90
2022-07-25T11:38:02.611Z,3.20
2022-07-25T11:39:02.351Z,2.90
2022-07-25T11:40:02.332Z,3.10
2022-07-25T11:41:02.309Z,3.10
2022-07-25T11:42:02.261Z,2.90
2022-07-25T11:43:02.241Z,3.00
2022-07-25T11:44:02.204Z,2.90
2022-07-25T11:45:02.262Z,3.00
2022-07-25T11:46:02.204Z,3.00
2022-07-25T11:47:02.120Z,2.70
2022-07-25T11:48:02.090Z,2.70
2022-07-25T11:49:02.106Z,2.70
2022-07-25T11:50:02.042Z,2.30
2022-07-25T11:51:02.991Z,2.70
2022-07-25T11:52:01.984Z,2.60
2022-07-25T11:53:01.942Z,2.60
2022-07-25T11:54:01.920Z,2.60
2022-07-25T11:55:01.885Z,2.40
2022-07-25T11:56:14.434Z,2.70
2022-07-25T11:57:01.827Z,2.70
2022-07-25T11:58:01.799Z,2.60
2022-07-25T11:59:01.775Z,2.60
2022-07-25T12:00:01.744Z,2.70
2022-07-25T12:01:01.726Z,2.70
2022-07-25T12:02:01.743Z,2.70
2022-07-25T12:03:01.758Z,2.70
2022-07-25T12:04:01.624Z,2.80
2022-07-25T12:05:01.597Z,2.80
2022-07-25T12:06:01.565Z,2.90
2022-07-25T12:07:01.546Z,2.70
2022-07-25T12:08:01.519Z,2.80
2022-07-25T12:09:01.480Z,2.60
2022-07-25T12:10:09.498Z,2.60
2022-07-25T12:11:01.419Z,2.80
2022-07-25T12:12:01.393Z,2.70
2022-07-25T12:13:01.370Z,2.90
2022-07-25T12:14:01.332Z,2.90
2022-07-25T12:15:01.299Z,2.80
2022-07-25T12:16:01.277Z,3.00
2022-07-25T12:17:01.300Z,3.10
2022-07-25T12:18:01.212Z,3.10
2022-07-25T12:19:01.193Z,3.00
2022-07-25T12:20:01.152Z,3.10
2022-07-25T12:21:01.137Z,2.70
2022-07-25T12:22:01.092Z,2.80
2022-07-25T12:23:01.111Z,3.00
2022-07-25T12:24:01.039Z,3.20
2022-07-25T12:25:01.013Z,3.00
2022-07-25T12:26:00.974Z,3.00
2022-07-25T12:27:00.941Z,2.90
2022-07-25T12:28:00.914Z,3.20
2022-07-25T12:29:00.885Z,3.00
2022-07-25T12:30:00.855Z,3.30
2022-07-25T12:31:00.905Z,3.20
2022-07-25T12:32:00.797Z,3.10
2022-07-25T12:33:00.773Z,2.80
2022-07-25T12:34:00.735Z,2.80
2022-07-25T12:35:00.706Z,3.00
2022-07-25T12:36:04.024Z,2.80
2022-07-25T12:37:00.661Z,2.70
2022-07-25T12:38:00.618Z,3.40
2022-07-25T12:39:00.607Z,3.00
2022-07-25T12:40:00.558Z,3.00
2022-07-25T12:41:00.523Z,2.70
2022-07-25T12:42:00.500Z,2.60
2022-07-25T12:43:00.466Z,2.90
2022-07-25T12:44:00.441Z,2.90
2022-07-25T12:45:00.421Z,2.70
2022-07-25T12:46:00.412Z,2.60
2022-07-25T12:47:00.348Z,3.00
2022-07-25T12:48:00.326Z,2.90
2022-07-25T12:49:00.381Z,2.70
2022-07-25T12:50:00.261Z,2.60
2022-07-25T12:51:00.242Z,2.80
2022-07-25T12:52:00.198Z,2.60
2022-07-25T12:53:00.170Z,2.90
2022-07-25T12:54:00.136Z,2.50
2022-07-25T12:55:00.134Z,2.70
2022-07-25T12:56:00.076Z,2.70
2022-07-25T12:57:00.076Z,2.80
2022-07-25T12:58:00.017Z,2.30
2022-07-25T12:58:59.986Z,2.40
2022-07-25T12:59:59.957Z,2.20
2022-07-25T13:01:03.552Z,2.30
2022-07-25T13:01:59.996Z,2.50
2022-07-25T13:02:59.953Z,2.70
2022-07-25T13:03:59.831Z,2.70
2022-07-25T13:04:59.801Z,2.30
2022-07-25T13:05:59.772Z,2.50
2022-07-25T13:06:59.740Z,2.60
2022-07-25T13:07:59.706Z,2.50
2022-07-25T13:08:59.700Z,2.60
2022-07-25T13:09:59.760Z,2.80
2022-07-25T13:10:59.616Z,2.70
2022-07-25T13:11:59.586Z,2.60
2022-07-25T13:12:59.551Z,2.60
2022-07-25T13:13:59.521Z,2.60
2022-07-25T13:14:59.601Z,2.30
2022-07-25T13:15:59.460Z,2.30
2022-07-25T13:16:59.497Z,2.20
2022-07-25T13:17:59.397Z,2.50
2022-07-25T13:18:59.367Z,2.50
2022-07-25T13:19:59.451Z,2.40
2022-07-25T13:20:59.314Z,2.50